Time;durP1;ratioP1;P1;durP2;ratioP2;P2;SDS_P1;SDS_P2;PMS_P1;PMS_P2;Temp;Humidity;BMP_temperature;BMP_pressure;BME280_temperature;BME280_humidity;BME280_pressure;Samples;Min_cycle;Max_cycle;Signal;HPM_P1;HPM_P2
2022/01/31 00:01:24;;;;;;;5.10;2.28;;;;;;;10.74;42.27;101322.81;5010387;28;20100;-77
2022/01/31 00:03:51;;;;;;;4.82;2.28;;;;;;;10.72;42.04;101300.28;5011143;28;20529;-77
2022/01/31 00:06:17;;;;;;;5.47;2.33;;;;;;;10.70;42.27;101294.09;5015109;28;20049;-77
2022/01/31 00:08:44;;;;;;;4.88;2.50;;;;;;;10.68;42.24;101277.91;5009888;28;20046;-77
2022/01/31 00:11:11;;;;;;;7.88;2.67;;;;;;;10.67;41.97;101272.56;5010671;28;20141;-77
2022/01/31 00:13:43;;;;;;;8.10;2.42;;;;;;;10.64;42.12;101243.75;5009800;28;20408;-77
2022/01/31 00:16:25;;;;;;;5.63;2.30;;;;;;;10.62;42.28;101217.66;5009116;28;20110;-77
2022/01/31 00:18:52;;;;;;;5.43;2.20;;;;;;;10.60;42.17;101217.75;5009708;28;20088;-77
2022/01/31 00:21:19;;;;;;;4.80;2.45;;;;;;;10.58;42.34;101214.25;5009310;28;20042;-77
2022/01/31 00:23:45;;;;;;;5.05;2.35;;;;;;;10.57;42.36;101223.34;5010529;28;20054;-77
2022/01/31 00:26:12;;;;;;;5.68;2.38;;;;;;;10.57;42.17;101236.06;5009863;28;20140;-77
2022/01/31 00:28:38;;;;;;;7.47;2.47;;;;;;;10.56;42.63;101240.63;5010583;28;20108;-77
2022/01/31 00:31:05;;;;;;;5.50;2.42;;;;;;;10.55;42.36;101224.41;4998986;28;20050;-77
2022/01/31 00:33:32;;;;;;;6.70;2.85;;;;;;;10.55;42.35;101222.56;5013767;28;20123;-77
2022/01/31 00:35:58;;;;;;;6.82;2.30;;;;;;;10.54;42.14;101196.38;5009261;28;20133;-77
2022/01/31 00:38:25;;;;;;;7.80;2.50;;;;;;;10.54;42.33;101173.81;5010803;28;20046;-76
2022/01/31 00:40:52;;;;;;;6.38;2.20;;;;;;;10.55;42.53;101179.13;5015658;28;20310;-77
2022/01/31 00:43:20;;;;;;;5.30;2.05;;;;;;;10.55;42.55;101165.56;5012614;28;20524;-77
2022/01/31 00:45:58;;;;;;;6.30;2.38;;;;;;;10.55;42.45;101170.13;5008929;28;20072;-77
2022/01/31 00:48:27;;;;;;;6.18;2.47;;;;;;;10.54;42.46;101171.13;5009580;28;20081;-77
2022/01/31 00:50:53;;;;;;;7.32;2.40;;;;;;;10.56;42.29;101155.56;5008389;28;20252;-77
2022/01/31 00:53:20;;;;;;;6.10;2.22;;;;;;;10.56;42.38;101147.44;5023430;28;20046;-77
2022/01/31 00:55:47;;;;;;;8.27;2.35;;;;;;;10.55;42.28;101143.84;5016924;28;20062;-77
2022/01/31 00:58:13;;;;;;;4.97;2.13;;;;;;;10.57;42.23;101141.03;5007131;28;20078;-77
2022/01/31 01:00:40;;;;;;;5.13;1.98;;;;;;;10.56;42.15;101129.31;5008828;28;20046;-77
2022/01/31 01:03:06;;;;;;;7.53;2.30;;;;;;;10.55;42.33;101105.84;5018420;28;20128;-77
2022/01/31 01:05:33;;;;;;;5.03;1.98;;;;;;;10.55;42.36;101091.38;5013939;28;20061;-77
2022/01/31 01:08:00;;;;;;;5.95;2.15;;;;;;;10.55;42.40;101080.53;5022767;28;20080;-76
2022/01/31 01:10:26;;;;;;;5.57;2.25;;;;;;;10.54;42.25;101059.81;5009713;28;20141;-76
2022/01/31 01:12:54;;;;;;;6.10;2.85;;;;;;;10.54;42.14;101054.38;5010636;28;20073;-76
2022/01/31 01:15:21;;;;;;;4.70;2.10;;;;;;;10.53;42.40;101042.63;5007908;28;20053;-77
2022/01/31 01:17:48;;;;;;;5.50;2.00;;;;;;;10.52;42.55;101043.59;5009025;28;20520;-77
2022/01/31 01:20:15;;;;;;;5.68;2.28;;;;;;;10.51;42.27;101028.28;5009110;28;20061;-77
2022/01/31 01:22:44;;;;;;;6.80;2.20;;;;;;;10.51;42.47;101002.97;5010471;28;20042;-77
2022/01/31 01:25:12;;;;;;;6.95;2.30;;;;;;;10.51;42.67;100993.00;5006135;28;20054;-77
2022/01/31 01:27:41;;;;;;;5.88;2.20;;;;;;;10.50;42.79;100993.97;4998404;28;20081;-77
2022/01/31 01:30:10;;;;;;;7.88;2.50;;;;;;;10.50;42.76;100972.25;5006412;28;20105;-77
2022/01/31 01:32:47;;;;;;;5.10;2.25;;;;;;;10.51;42.88;100964.97;5009275;28;20096;-77
2022/01/31 01:35:14;;;;;;;7.22;2.30;;;;;;;10.51;42.88;100944.13;5013654;28;20610;-77
2022/01/31 01:37:40;;;;;;;4.15;2.25;;;;;;;10.53;42.87;100938.59;5012280;28;20500;-77
2022/01/31 01:40:07;;;;;;;6.00;2.40;;;;;;;10.53;42.69;100927.75;5015613;28;20077;-77
2022/01/31 01:42:34;;;;;;;7.15;2.88;;;;;;;10.53;42.76;100920.47;5010864;28;20042;-77
2022/01/31 01:45:01;;;;;;;8.60;2.30;;;;;;;10.54;42.86;100903.19;5010226;28;20120;-77
2022/01/31 01:47:28;;;;;;;6.38;2.20;;;;;;;10.54;42.82;100886.06;5008744;28;20576;-77
2022/01/31 01:49:54;;;;;;;10.50;2.40;;;;;;;10.55;42.58;100868.78;5007283;28;20140;-77
2022/01/31 01:52:21;;;;;;;6.32;2.17;;;;;;;10.55;42.67;100857.91;5010232;28;20157;-77
2022/01/31 01:54:48;;;;;;;6.47;2.20;;;;;;;10.55;42.37;100849.75;5019467;28;20119;-77
2022/01/31 01:57:17;;;;;;;8.27;2.60;;;;;;;10.53;42.80;100847.19;5008473;28;20089;-77
2022/01/31 01:59:44;;;;;;;6.50;2.47;;;;;;;10.54;42.51;100834.47;5011753;28;20088;-77
2022/01/31 02:02:11;;;;;;;7.38;2.58;;;;;;;10.53;42.62;100816.44;5008702;28;20501;-77
2022/01/31 02:04:37;;;;;;;5.32;2.00;;;;;;;10.50;42.92;100806.66;5018714;28;20069;-77
2022/01/31 02:07:04;;;;;;;8.43;2.15;;;;;;;10.51;42.84;100792.13;5007392;28;20104;-77
2022/01/31 02:09:41;;;;;;;6.18;1.98;;;;;;;10.51;42.95;100791.25;5007973;28;20050;-77
2022/01/31 02:12:08;;;;;;;6.78;2.17;;;;;;;10.48;42.99;100775.16;5005086;28;20157;-77
2022/01/31 02:14:35;;;;;;;4.32;1.90;;;;;;;10.50;42.93;100765.06;5008595;28;20132;-77
2022/01/31 02:17:02;;;;;;;5.45;1.90;;;;;;;10.50;42.96;100748.78;5008588;28;20504;-77
2022/01/31 02:19:28;;;;;;;8.02;2.17;;;;;;;10.49;43.21;100739.78;5008186;28;20056;-77
2022/01/31 02:21:55;;;;;;;6.15;2.58;;;;;;;10.48;43.46;100737.16;5008789;28;20489;-77
2022/01/31 02:24:22;;;;;;;7.15;2.25;;;;;;;10.46;43.19;100726.41;5007648;28;20448;-77
2022/01/31 02:26:49;;;;;;;7.60;2.83;;;;;;;10.47;43.15;100730.84;5007162;28;20141;-77
2022/01/31 02:29:16;;;;;;;9.05;2.85;;;;;;;10.46;43.20;100717.41;5008503;28;20103;-76
2022/01/31 02:31:45;;;;;;;5.78;2.10;;;;;;;10.46;43.27;100703.84;5019503;28;20501;-76
2022/01/31 02:34:12;;;;;;;6.30;2.05;;;;;;;10.41;43.89;100693.28;5008701;28;20060;-76
2022/01/31 02:36:40;;;;;;;8.65;2.10;;;;;;;10.40;44.01;100694.25;5008551;28;20054;-76
2022/01/31 02:39:07;;;;;;;5.63;2.30;;;;;;;10.37;43.87;100686.34;5021024;28;20100;-77
2022/01/31 02:41:44;;;;;;;5.32;2.30;;;;;;;10.39;44.15;100683.50;5008964;28;20089;-77
2022/01/31 02:44:15;;;;;;;6.65;2.30;;;;;;;10.33;44.24;100678.50;5002419;28;20054;-77
2022/01/31 02:46:52;;;;;;;5.80;1.73;;;;;;;10.29;44.47;100670.56;5009121;28;20056;-76
2022/01/31 02:49:23;;;;;;;4.80;2.03;;;;;;;10.29;44.32;100659.69;5022443;28;20095;-75
2022/01/31 02:51:59;;;;;;;5.88;2.10;;;;;;;10.28;44.56;100652.56;5015710;28;20050;-75
2022/01/31 02:54:27;;;;;;;8.00;2.22;;;;;;;10.24;44.58;100644.72;5011622;28;20062;-75
2022/01/31 02:56:54;;;;;;;8.13;2.20;;;;;;;10.22;44.69;100641.25;5017898;28;20053;-75
2022/01/31 02:59:21;;;;;;;6.32;2.20;;;;;;;10.21;44.69;100631.41;5016910;28;20085;-74
2022/01/31 03:01:48;;;;;;;7.45;2.20;;;;;;;10.17;44.94;100643.38;5012219;28;20208;-73
2022/01/31 03:04:15;;;;;;;6.18;2.53;;;;;;;10.13;45.05;100634.56;5009991;28;20497;-74
2022/01/31 03:06:47;;;;;;;5.00;2.13;;;;;;;10.12;44.85;100618.44;5015090;28;20137;-81
2022/01/31 03:09:14;;;;;;;5.10;2.10;;;;;;;10.06;45.45;100607.97;5022627;28;20103;-76
2022/01/31 03:11:40;;;;;;;5.63;2.13;;;;;;;10.10;45.29;100604.97;5012328;28;20108;-76
2022/01/31 03:14:08;;;;;;;4.60;1.80;;;;;;;10.05;45.48;100596.25;5009097;28;20045;-76
2022/01/31 03:16:40;;;;;;;6.45;2.30;;;;;;;10.03;45.50;100586.50;5010408;28;20121;-76
2022/01/31 03:19:07;;;;;;;5.57;1.90;;;;;;;10.00;45.66;100581.28;5007925;28;20060;-76
2022/01/31 03:21:34;;;;;;;5.75;1.80;;;;;;;9.98;45.41;100578.66;5011504;28;20081;-76
2022/01/31 03:24:02;;;;;;;5.68;1.92;;;;;;;9.97;45.77;100571.50;5011793;28;20129;-76
2022/01/31 03:26:28;;;;;;;5.72;1.95;;;;;;;9.92;45.95;100550.13;5021102;28;20069;-76
2022/01/31 03:28:55;;;;;;;5.57;1.90;;;;;;;9.88;45.91;100551.31;5008999;28;20050;-76
2022/01/31 03:31:22;;;;;;;4.60;1.98;;;;;;;9.88;46.10;100554.03;5007677;28;20096;-76
2022/01/31 03:33:51;;;;;;;4.72;1.90;;;;;;;9.86;46.32;100545.16;5024657;28;20572;-76
2022/01/31 03:36:18;;;;;;;4.20;1.70;;;;;;;9.87;46.21;100548.72;5013258;28;20142;-76
2022/01/31 03:38:45;;;;;;;4.32;1.77;;;;;;;9.83;46.65;100548.06;5016791;28;20069;-76
2022/01/31 03:41:14;;;;;;;3.88;1.60;;;;;;;9.82;46.59;100542.72;5008773;28;20497;-76
2022/01/31 03:43:41;;;;;;;4.43;1.80;;;;;;;9.84;46.76;100536.25;5010795;28;20096;-76
2022/01/31 03:46:08;;;;;;;5.75;1.95;;;;;;;9.81;46.81;100531.03;5010033;28;20041;-76
2022/01/31 03:48:35;;;;;;;4.22;1.80;;;;;;;9.81;47.02;100528.31;5005740;28;20510;-76
2022/01/31 03:51:04;;;;;;;4.50;1.88;;;;;;;9.80;47.04;100514.88;5007372;28;20139;-76
2022/01/31 03:53:31;;;;;;;4.20;1.70;;;;;;;9.76;47.28;100516.06;5016989;28;20085;-76
2022/01/31 03:55:58;;;;;;;3.63;1.52;;;;;;;9.77;47.18;100505.09;5006339;28;20082;-76
2022/01/31 03:58:24;;;;;;;5.53;1.67;;;;;;;9.77;47.24;100483.41;5014580;28;20157;-76
2022/01/31 04:00:52;;;;;;;6.40;1.90;;;;;;;9.79;47.41;100486.03;5005184;28;20081;-76
2022/01/31 04:03:19;;;;;;;3.03;1.45;;;;;;;9.77;47.20;100478.00;5011550;28;20478;-76
2022/01/31 04:05:45;;;;;;;4.72;1.67;;;;;;;9.78;47.65;100489.72;5009939;28;20480;-76
2022/01/31 04:08:12;;;;;;;3.97;1.60;;;;;;;9.79;47.78;100475.19;5011590;28;20049;-76
2022/01/31 04:10:39;;;;;;;3.65;1.50;;;;;;;9.81;47.54;100470.50;5009854;28;20150;-76
2022/01/31 04:13:06;;;;;;;4.25;1.73;;;;;;;9.84;47.68;100464.88;5010606;28;20050;-76
2022/01/31 04:15:36;;;;;;;6.40;1.85;;;;;;;9.89;47.90;100455.44;5009714;28;20050;-77
2022/01/31 04:18:03;;;;;;;3.58;1.70;;;;;;;9.84;47.85;100451.31;5002857;28;20077;-76
2022/01/31 04:20:30;;;;;;;3.85;1.60;;;;;;;9.83;47.99;100461.28;5010334;28;20480;-76
2022/01/31 04:23:02;;;;;;;2.83;1.40;;;;;;;9.85;48.30;100439.50;5011245;28;20046;-76
2022/01/31 04:25:31;;;;;;;3.88;1.52;;;;;;;9.83;47.93;100446.88;5010027;28;20076;-76
2022/01/31 04:28:03;;;;;;;4.82;1.70;;;;;;;9.85;48.38;100434.06;5002990;28;20477;-76
2022/01/31 04:30:32;;;;;;;4.18;1.83;;;;;;;9.84;48.44;100429.63;5007556;28;20077;-76
2022/01/31 04:32:58;;;;;;;3.35;1.70;;;;;;;9.85;48.50;100432.25;5016582;28;20053;-76
2022/01/31 04:35:25;;;;;;;5.05;1.42;;;;;;;9.85;48.45;100432.25;5005138;28;20058;-76
2022/01/31 04:37:52;;;;;;;2.83;1.27;;;;;;;9.87;48.66;100435.72;5010359;28;20049;-75
2022/01/31 04:40:19;;;;;;;2.83;1.38;;;;;;;9.89;48.79;100444.59;5009128;28;20503;-76
2022/01/31 04:42:46;;;;;;;4.45;1.60;;;;;;;9.92;48.86;100432.66;5012263;28;20552;-76
2022/01/31 04:45:12;;;;;;;4.38;1.30;;;;;;;9.95;48.93;100435.16;5009927;28;20046;-76
2022/01/31 04:47:39;;;;;;;4.03;1.70;;;;;;;9.98;48.74;100429.50;5010500;28;20419;-76
2022/01/31 04:50:06;;;;;;;4.65;1.58;;;;;;;10.00;48.73;100430.28;5009512;28;20462;-76
2022/01/31 04:52:33;;;;;;;3.22;1.75;;;;;;;10.03;48.77;100426.50;5013148;28;20057;-76
2022/01/31 04:54:59;;;;;;;4.88;1.95;;;;;;;10.06;48.52;100423.53;5015194;28;20082;-76
2022/01/31 04:57:26;;;;;;;4.03;1.70;;;;;;;10.10;48.85;100408.78;5010192;28;20054;-76
2022/01/31 04:59:53;;;;;;;3.22;1.45;;;;;;;10.10;48.96;100419.66;5007969;28;20186;-76
2022/01/31 05:02:19;;;;;;;4.30;1.80;;;;;;;10.14;49.00;100421.13;5012986;28;20054;-76
2022/01/31 05:04:48;;;;;;;4.07;2.17;;;;;;;10.17;48.92;100418.22;5007810;28;20050;-76
2022/01/31 05:07:15;;;;;;;5.85;3.00;;;;;;;10.19;49.08;100408.16;5009925;28;20148;-76
2022/01/31 05:09:43;;;;;;;6.32;2.20;;;;;;;10.20;49.03;100399.06;5012245;28;20108;-76
2022/01/31 05:12:11;;;;;;;4.03;2.25;;;;;;;10.23;49.19;100401.53;5000004;28;20066;-76
2022/01/31 05:14:37;;;;;;;5.60;2.40;;;;;;;10.24;49.19;100401.41;5013142;28;20085;-76
2022/01/31 05:17:04;;;;;;;6.47;2.30;;;;;;;10.25;49.39;100392.31;5001209;28;20479;-75
2022/01/31 05:19:30;;;;;;;4.40;2.33;;;;;;;10.26;49.31;100391.31;5012388;28;20137;-76
2022/01/31 05:21:57;;;;;;;5.13;2.45;;;;;;;10.30;49.32;100383.81;5011862;28;20489;-75
2022/01/31 05:24:24;;;;;;;6.43;2.40;;;;;;;10.30;49.55;100387.41;5006349;28;20136;-75
2022/01/31 05:26:52;;;;;;;7.03;2.80;;;;;;;10.33;49.43;100383.59;5009670;28;20603;-75
2022/01/31 05:29:20;;;;;;;7.13;2.33;;;;;;;10.36;49.49;100379.81;5008514;28;20081;-76
2022/01/31 05:31:48;;;;;;;6.15;2.25;;;;;;;10.37;49.39;100390.56;5005713;28;20165;-76
2022/01/31 05:34:16;;;;;;;5.47;2.15;;;;;;;10.39;49.50;100379.56;5016214;28;20357;-76
2022/01/31 05:36:42;;;;;;;4.57;2.40;;;;;;;10.41;49.44;100370.34;5009144;28;20482;-75
2022/01/31 05:39:09;;;;;;;4.85;2.15;;;;;;;10.43;49.42;100379.25;5007271;28;20077;-76
2022/01/31 05:41:35;;;;;;;4.60;2.15;;;;;;;10.44;49.58;100371.97;5009416;28;20088;-76
2022/01/31 05:44:02;;;;;;;6.72;2.20;;;;;;;10.46;49.49;100381.69;5008660;28;20081;-76
2022/01/31 05:46:29;;;;;;;4.38;1.98;;;;;;;10.45;49.55;100365.56;5006418;28;20060;-76
2022/01/31 05:48:56;;;;;;;6.10;2.28;;;;;;;10.45;49.74;100368.28;5009364;28;20132;-76
2022/01/31 05:51:24;;;;;;;4.05;2.10;;;;;;;10.48;49.65;100368.03;5005886;28;20254;-76
2022/01/31 05:53:50;;;;;;;6.47;2.05;;;;;;;10.48;49.82;100368.03;5009350;28;20070;-76
2022/01/31 05:56:18;;;;;;;5.43;1.80;;;;;;;10.50;49.73;100375.09;5008134;28;20128;-76
2022/01/31 05:58:45;;;;;;;5.03;1.65;;;;;;;10.50;49.76;100361.50;5017714;28;20153;-76
2022/01/31 06:01:13;;;;;;;5.03;2.17;;;;;;;10.53;49.66;100360.44;5006459;28;20049;-76
2022/01/31 06:03:40;;;;;;;7.75;1.92;;;;;;;10.54;49.67;100354.03;5007711;28;20056;-76
2022/01/31 06:06:06;;;;;;;4.55;1.75;;;;;;;10.55;49.70;100351.16;5006405;28;20046;-76
2022/01/31 06:08:33;;;;;;;6.32;1.90;;;;;;;10.56;49.51;100335.75;5009204;28;20046;-76
2022/01/31 06:10:59;;;;;;;7.07;2.20;;;;;;;10.59;49.60;100339.13;5009093;28;20136;-76
2022/01/31 06:13:30;;;;;;;6.03;2.00;;;;;;;10.58;49.67;100341.94;5000346;28;20104;-77
2022/01/31 06:15:56;;;;;;;6.30;2.22;;;;;;;10.58;49.65;100339.22;5003459;28;20671;-76
2022/01/31 06:18:23;;;;;;;7.55;2.28;;;;;;;10.58;49.56;100333.78;5007925;28;20528;-75
2022/01/31 06:20:50;;;;;;;5.55;1.77;;;;;;;10.59;49.61;100341.84;5003639;28;20081;-76
2022/01/31 06:23:16;;;;;;;6.35;1.50;;;;;;;10.58;49.34;100334.66;5007887;28;20049;-76
2022/01/31 06:25:45;;;;;;;5.03;1.50;;;;;;;10.59;49.77;100332.81;5006691;28;20096;-76
2022/01/31 06:28:13;;;;;;;4.07;1.90;;;;;;;10.61;49.43;100310.00;5004280;28;20072;-76
2022/01/31 06:30:40;;;;;;;5.55;1.65;;;;;;;10.61;49.32;100326.31;5007014;28;20049;-76
2022/01/31 06:33:07;;;;;;;5.47;1.95;;;;;;;10.60;49.11;100315.56;5006302;28;20519;-76
2022/01/31 06:35:33;;;;;;;4.97;1.55;;;;;;;10.61;49.40;100325.44;5004879;28;20536;-77
2022/01/31 06:38:00;;;;;;;5.90;1.75;;;;;;;10.61;49.09;100309.16;5004430;28;20401;-77
2022/01/31 06:40:27;;;;;;;6.40;1.63;;;;;;;10.59;49.36;100306.53;5007448;28;20398;-76
2022/01/31 06:42:53;;;;;;;6.47;1.70;;;;;;;10.58;49.43;100314.78;5008110;28;20124;-76
2022/01/31 06:45:20;;;;;;;4.72;1.38;;;;;;;10.58;49.50;100304.81;5006903;28;20089;-77
2022/01/31 06:47:46;;;;;;;4.70;1.25;;;;;;;10.60;49.07;100304.69;5008987;28;20132;-76
2022/01/31 06:50:13;;;;;;;5.13;1.30;;;;;;;10.60;49.31;100312.84;5007881;28;20050;-77
2022/01/31 06:52:41;;;;;;;6.70;1.30;;;;;;;10.59;48.94;100306.53;5008728;28;20046;-76
2022/01/31 06:55:18;;;;;;;4.55;1.38;;;;;;;10.60;49.36;100318.25;5006506;28;20112;-77
2022/01/31 06:57:45;;;;;;;4.60;1.50;;;;;;;10.59;49.20;100316.53;5008569;28;20508;-77
2022/01/31 07:00:13;;;;;;;5.15;1.55;;;;;;;10.60;49.24;100311.00;5006782;28;20061;-76
2022/01/31 07:02:39;;;;;;;4.85;1.20;;;;;;;10.59;49.33;100325.53;5007836;28;20046;-77
2022/01/31 07:05:07;;;;;;;5.75;1.40;;;;;;;10.60;49.32;100342.69;5004116;28;20570;-76
2022/01/31 07:07:33;;;;;;;7.03;1.60;;;;;;;10.58;49.19;100345.53;5004637;28;20291;-77
2022/01/31 07:10:04;;;;;;;6.53;1.60;;;;;;;10.57;49.27;100370.94;5003006;28;20058;-77
2022/01/31 07:12:34;;;;;;;4.95;1.50;;;;;;;10.55;49.06;100367.44;5004334;28;20137;-78
2022/01/31 07:15:02;;;;;;;7.40;1.20;;;;;;;10.53;49.13;100385.72;5006633;28;20058;-78
2022/01/31 07:17:30;;;;;;;4.45;1.20;;;;;;;10.52;49.14;100372.25;5004920;28;20056;-77
2022/01/31 07:19:57;;;;;;;2.25;1.00;;;;;;;10.47;48.99;100348.16;5022759;28;20497;-75
2022/01/31 07:22:32;;;;;;;1.67;0.63;;;;;;;10.41;48.94;100340.47;4999764;28;20537;-79
2022/01/31 07:25:06;;;;;;;2.17;0.98;;;;;;;10.34;48.52;100327.47;5012374;28;20069;-78
2022/01/31 07:27:33;;;;;;;4.38;1.00;;;;;;;10.30;48.96;100335.84;5010254;28;20050;-78
2022/01/31 07:30:01;;;;;;;2.03;0.98;;;;;;;10.24;48.83;100325.44;5007266;28;20456;-77
2022/01/31 07:32:29;;;;;;;3.95;0.95;;;;;;;10.20;48.98;100315.81;5011608;28;20046;-78
2022/01/31 07:34:56;;;;;;;3.88;0.93;;;;;;;10.20;48.93;100307.69;5015102;28;20044;-77
2022/01/31 07:37:30;;;;;;;3.08;0.90;;;;;;;10.13;49.13;100317.19;5002117;28;20450;-77
2022/01/31 07:40:04;;;;;;;3.58;1.20;;;;;;;10.08;49.48;100308.53;5010268;28;20050;-78
2022/01/31 07:42:31;;;;;;;3.17;1.17;;;;;;;10.06;49.56;100315.03;5002524;28;20102;-79
2022/01/31 07:44:58;;;;;;;3.13;1.48;;;;;;;10.03;49.36;100307.16;5008177;28;20508;-78
2022/01/31 07:47:33;;;;;;;5.30;1.30;;;;;;;10.01;49.66;100312.69;5009989;28;20108;-77
2022/01/31 07:50:02;;;;;;;4.40;1.25;;;;;;;10.00;49.58;100310.09;5010829;28;20101;-74
2022/01/31 07:52:29;;;;;;;3.78;1.20;;;;;;;9.97;49.40;100307.56;5010114;28;20045;-75
2022/01/31 07:54:55;;;;;;;3.55;1.20;;;;;;;9.97;49.52;100305.72;5008659;28;20497;-75
2022/01/31 07:57:24;;;;;;;3.58;1.10;;;;;;;9.96;49.74;100314.88;5007947;28;20077;-75
2022/01/31 08:00:07;;;;;;;5.30;1.13;;;;;;;9.97;49.77;100315.72;5001870;28;20049;-75
2022/01/31 08:02:34;;;;;;;4.07;1.20;;;;;;;9.95;49.87;100302.28;4986064;28;20141;-75
2022/01/31 08:05:01;;;;;;;2.45;1.20;;;;;;;9.95;49.73;100301.44;5007062;28;20058;-75
2022/01/31 08:07:28;;;;;;;6.05;1.88;;;;;;;9.94;50.06;100300.56;5011599;28;20052;-75
2022/01/31 08:09:55;;;;;;;4.07;1.60;;;;;;;9.91;50.04;100309.78;5018983;28;20121;-75
2022/01/31 08:12:23;;;;;;;3.80;1.17;;;;;;;9.91;50.12;100317.03;5011306;28;20061;-75
2022/01/31 08:14:50;;;;;;;5.65;1.30;;;;;;;9.91;50.09;100317.03;5006396;28;20061;-75
2022/01/31 08:17:18;;;;;;;5.53;1.80;;;;;;;9.92;50.41;100316.06;5009891;28;20049;-76
2022/01/31 08:19:44;;;;;;;3.90;1.60;;;;;;;9.92;50.13;100313.34;5009729;28;20170;-76
2022/01/31 08:22:11;;;;;;;6.15;1.98;;;;;;;9.91;50.28;100317.03;5007406;28;20038;-76
2022/01/31 08:24:37;;;;;;;5.10;1.58;;;;;;;9.91;50.40;100319.75;5007436;28;20049;-77
2022/01/31 08:27:04;;;;;;;5.82;1.80;;;;;;;9.94;50.25;100319.53;5010160;28;20116;-76
2022/01/31 08:29:38;;;;;;;6.35;1.58;;;;;;;9.93;50.44;100309.66;5008644;28;20469;-76
2022/01/31 08:32:14;;;;;;;3.97;1.70;;;;;;;9.93;50.49;100317.81;5010302;28;20046;-76
2022/01/31 08:37:35;;;;;;;6.75;1.80;;;;;;;9.90;50.38;100307.16;5010613;28;20387;-76
2022/01/31 08:40:03;;;;;;;5.28;1.58;;;;;;;9.92;50.50;100311.50;5008899;28;20583;-76
2022/01/31 08:42:30;;;;;;;5.70;1.83;;;;;;;9.90;50.38;100310.75;5009914;28;20092;-76
2022/01/31 08:44:56;;;;;;;5.28;1.90;;;;;;;9.89;50.46;100322.56;4998802;28;20057;-76
2022/01/31 08:47:23;;;;;;;5.63;1.88;;;;;;;9.91;50.34;100289.94;5008251;28;20103;-78
2022/01/31 08:49:50;;;;;;;4.63;1.40;;;;;;;9.89;50.41;100308.16;5009567;28;20049;-79
2022/01/31 08:52:16;;;;;;;3.33;1.33;;;;;;;9.86;50.29;100308.38;5010122;28;20112;-79
2022/01/31 08:54:43;;;;;;;5.25;1.52;;;;;;;9.83;50.38;100298.63;5008663;28;20111;-75
2022/01/31 08:57:10;;;;;;;4.28;1.60;;;;;;;9.83;50.40;100317.59;5009313;28;20057;-77
2022/01/31 08:59:43;;;;;;;4.53;1.60;;;;;;;9.81;50.60;100297.00;5011943;28;20149;-77
2022/01/31 09:02:16;;;;;;;5.40;1.65;;;;;;;9.78;50.58;100294.53;5009372;28;20120;-76
2022/01/31 09:04:49;;;;;;;4.47;1.55;;;;;;;9.77;50.59;100292.78;5014895;28;20065;-79
2022/01/31 09:07:18;;;;;;;4.82;1.60;;;;;;;9.75;50.70;100294.72;5016532;28;20069;-78
2022/01/31 09:09:49;;;;;;;5.80;1.63;;;;;;;9.75;50.58;100292.88;5016017;28;20156;-77
2022/01/31 09:12:17;;;;;;;5.05;1.42;;;;;;;9.75;50.73;100286.59;4991775;28;20042;-76
2022/01/31 09:14:45;;;;;;;3.72;1.27;;;;;;;9.73;50.66;100284.00;4986713;28;20076;-76
2022/01/31 09:17:12;;;;;;;2.85;1.05;;;;;;;9.77;50.52;100269.25;4988091;28;20047;-76
2022/01/31 09:19:39;;;;;;;4.78;1.27;;;;;;;9.74;50.73;100279.44;4987299;28;20453;-77
2022/01/31 09:22:05;;;;;;;4.55;1.30;;;;;;;9.76;50.61;100286.50;4990033;28;20618;-77
2022/01/31 09:24:37;;;;;;;3.10;1.33;;;;;;;9.75;50.72;100271.19;4992405;28;20054;-77
2022/01/31 09:27:08;;;;;;;4.50;1.20;;;;;;;9.74;50.91;100263.19;5009033;28;20115;-78
2022/01/31 09:29:35;;;;;;;6.55;1.48;;;;;;;9.75;50.80;100263.06;5007915;28;20049;-77
2022/01/31 09:32:04;;;;;;;4.75;1.40;;;;;;;9.75;50.79;100284.75;5007759;28;20042;-77
2022/01/31 09:34:32;;;;;;;6.60;1.40;;;;;;;9.74;50.82;100258.63;5001319;28;20101;-76
2022/01/31 09:37:00;;;;;;;7.10;1.70;;;;;;;9.74;51.02;100266.75;4988705;28;20058;-78
2022/01/31 09:39:27;;;;;;;6.50;1.60;;;;;;;9.74;50.95;100261.34;4988154;28;20061;-77
2022/01/31 09:41:59;;;;;;;6.35;1.70;;;;;;;9.71;51.25;100268.84;4971486;28;20461;-77
2022/01/31 09:44:45;;;;;;;8.13;1.65;;;;;;;9.73;50.74;100259.59;4987455;28;20512;-77
2022/01/31 09:48:31;;;;;;;5.32;1.45;;;;;;;9.71;51.08;100258.00;4986314;28;20141;-77
2022/01/31 09:50:14;;;;;;;5.47;1.30;;;;;;;9.71;51.13;100258.00;4995205;28;20489;-78
2022/01/31 09:52:40;;;;;;;5.80;1.60;;;;;;;9.69;51.07;100254.53;5007916;28;20133;-77
2022/01/31 09:55:07;;;;;;;5.07;1.65;;;;;;;9.69;51.27;100255.38;5005312;28;20549;-77
2022/01/31 09:57:34;;;;;;;7.65;1.60;;;;;;;9.70;51.12;100257.13;5009472;28;20124;-77
2022/01/31 10:00:02;;;;;;;6.07;1.73;;;;;;;9.70;50.91;100265.25;5008233;28;20058;-77
2022/01/31 10:02:29;;;;;;;8.93;2.42;;;;;;;9.69;51.34;100263.53;5002533;28;20556;-77
2022/01/31 10:04:56;;;;;;;6.18;1.73;;;;;;;9.67;51.06;100270.88;5006048;28;20081;-77
2022/01/31 10:07:22;;;;;;;5.55;1.83;;;;;;;9.70;51.41;100261.69;5005932;28;20081;-77
2022/01/31 10:09:50;;;;;;;4.57;1.55;;;;;;;9.69;51.25;100273.50;5007019;28;20138;-77
2022/01/31 10:16:24;;;;;;;6.97;1.63;;;;;;;9.68;51.33;100278.03;5006162;28;20081;-77
2022/01/31 10:18:01;;;;;;;4.63;1.80;;;;;;;9.68;51.32;100283.47;5008062;28;20081;-77
2022/01/31 10:20:30;;;;;;;5.93;1.55;;;;;;;9.70;51.30;100286.94;5005782;28;20050;-77
2022/01/31 10:23:07;;;;;;;3.75;1.40;;;;;;;9.73;51.76;100285.84;5019504;28;20061;-77
2022/01/31 10:25:34;;;;;;;7.50;1.98;;;;;;;9.69;51.32;100296.03;5003859;28;20057;-78
2022/01/31 10:28:19;;;;;;;5.80;1.20;;;;;;;9.69;51.49;100290.63;5008869;28;20046;-77
2022/01/31 10:30:50;;;;;;;5.28;1.42;;;;;;;9.70;51.58;100296.91;5007871;28;20054;-78
2022/01/31 10:33:18;;;;;;;4.55;1.60;;;;;;;9.71;51.43;100304.06;4999566;28;20129;-77
2022/01/31 10:35:45;;;;;;;5.30;1.50;;;;;;;9.71;51.68;100320.34;5005066;28;20493;-78
2022/01/31 10:38:16;;;;;;;4.57;1.30;;;;;;;9.70;51.68;100303.22;5008346;28;20060;-77
2022/01/31 10:44:11;;;;;;;5.50;1.48;;;;;;;9.69;51.71;100323.16;5009932;28;20446;-77
2022/01/31 10:52:55;;;;;;;4.30;1.60;;;;;;;9.73;51.96;100331.91;4952179;28;20365;-77
2022/01/31 10:55:22;;;;;;;6.43;1.50;;;;;;;9.70;52.06;100314.06;4940011;28;20087;-77
2022/01/31 10:58:05;;;;;;;5.32;1.45;;;;;;;9.74;52.18;100312.84;4983541;28;20119;-76
2022/01/31 11:00:35;;;;;;;5.65;1.90;;;;;;;9.72;51.98;100341.88;5006758;28;20140;-77
2022/01/31 11:03:28;;;;;;;8.38;2.20;;;;;;;9.76;52.32;100331.72;5007482;28;20042;-77
2022/01/31 11:05:55;;;;;;;;;;;;;;;9.54;52.14;100327.84;5007235;28;20045;-76
2022/01/31 11:08:22;;;;;;;7.75;1.80;;;;;;;9.69;52.51;100352.09;5019796;28;20361;-76
2022/01/31 11:10:49;;;;;;;7.90;2.03;;;;;;;9.76;51.94;100329.00;5010663;28;20148;-76
2022/01/31 11:13:17;;;;;;;7.25;1.90;;;;;;;9.74;52.31;100330.94;5023760;28;20061;-76
2022/01/31 11:15:44;;;;;;;5.03;1.45;;;;;;;9.76;52.13;100348.84;5009168;28;20056;-76
2022/01/31 11:18:13;;;;;;;7.15;1.73;;;;;;;9.76;52.40;100348.84;5016146;28;20046;-76
2022/01/31 11:20:43;;;;;;;5.75;1.60;;;;;;;9.76;52.36;100350.69;5009747;28;20061;-76
2022/01/31 11:23:12;;;;;;;4.90;1.77;;;;;;;9.80;52.18;100350.34;5012053;28;20045;-76
2022/01/31 11:25:43;;;;;;;9.73;2.10;;;;;;;9.83;52.30;100351.97;5013408;28;20058;-77
2022/01/31 11:28:13;;;;;;;7.78;1.63;;;;;;;9.82;52.23;100371.94;5011412;28;20049;-77
2022/01/31 11:30:43;;;;;;;6.95;1.90;;;;;;;9.83;52.32;100362.81;5010680;28;20073;-77
2022/01/31 11:33:11;;;;;;;6.90;1.77;;;;;;;9.83;52.24;100376.38;5011166;28;20224;-77
2022/01/31 11:35:37;;;;;;;8.43;2.33;;;;;;;9.84;52.28;100376.28;5006148;28;20567;-77
2022/01/31 11:38:04;;;;;;;7.90;2.20;;;;;;;9.84;52.46;100381.69;5010683;28;20073;-76
2022/01/31 11:40:31;;;;;;;6.55;2.50;;;;;;;9.86;52.10;100395.16;5009058;28;20050;-77
2022/01/31 11:42:58;;;;;;;8.43;2.03;;;;;;;9.85;52.13;100394.28;5011225;28;20085;-77
2022/01/31 11:45:29;;;;;;;9.48;2.50;;;;;;;9.88;52.30;100379.66;5008832;28;20049;-77
2022/01/31 11:47:58;;;;;;;9.55;2.60;;;;;;;9.89;52.12;100395.78;5010557;28;20096;-77
2022/01/31 11:50:26;;;;;;;9.23;2.65;;;;;;;9.88;52.33;100390.50;5005886;28;20053;-77